Needmore, Kentucky
Current Conditions -  °F | °C
As of 4:35 AM on Sunday 26 Oct 2014 (Local Time) from KFGX Reporting Station
Clear Clear  
Wind Chill: 55°   Ceiling: Unl
Heat Index: 55°   Visibility: 10mi
Dew Point: 44°   Wind: 6mph
Humidity: 68%   Direction: 310°NW
Pressure: 29.97"   Gusts: NA
Location:  38.4934°N, 83.7754°W
Report Text: KFGX 260835Z AUTO 31005KT 10SM CLR 13/07 A2997 RMK AO2 T01260069
Loading
Personal Weather Stations






























Interactive Weather Map
Tropical Storm Tracking
New forecast layout! Learn more

10-Day Weather Forecast

Advertisements
Track Severe Weather on mobile